Creedmoor, North Carolina
Current Conditions -  °F | °C
As of 11:03 PM on Tuesday 25 Nov 2014 (Local Time) from KRDU Reporting Station
Light Rain Light Rain  
Wind Chill:   Ceiling: 2800
Heat Index:   Visibility: 8mi
Dew Point:   Wind: 0mph
Humidity: 87%   Direction: NA
Pressure: 30.07"   Gusts: NA
Location:  36.12°N, 78.69°W
Report Text: KRDU 260403Z 00000KT 8SM -RA FEW007 BKN028 OVC090 09/07 A3007 RMK AO2 P0001
Loading
Personal Weather Stations






























Interactive Weather Map New forecast layout! Learn more

10-Day Weather Forecast

Advertisements
Track Severe Weather on mobile